Airfield :
LOGIN :

Register | Disclaimer

   EN    FR    IT 

 










Legend :    VFR   Marginal VFR   IFR   Intensive IFR   Very Intensive IFR
Visi :
Ceiling :
>= 8 km
>= 3000ft
5 to 8 km
1000 to 3000 ft
1500m to 5 km
500 to 1000 ft
800 to 1500m
200 to 500 ft
< 800m
< 200 ft
Symbols :   Thunderstorms  Fog  Heavy snow  Heavy precipitations  Wind > 20 kt
SIGMETs :     Misc.  Thunderstorms  Icing  Turbulence  Mountain Waves  Volcanic Ashes






- Airport Elevation : 659 ft
- IATA code : LGG


EBLG - Liège

CURRENT METAR :
  • 200250Z 31010KT 9999 -SHRA SCT010 BKN016 04/03 Q1017 TEMPO BKN012

EXPIRED METARs :
  • 200220Z 30008KT 9999 BKN016 04/02 Q1017 TEMPO BKN012
  • 200150Z 30008KT 270V330 9999 BKN016 04/02 Q1017 TEMPO BKN012
  • 200120Z 31010KT 9999 -SHRA BKN020 04/02 Q1017 NOSIG
  • 200050Z 31009KT 270V340 9999 FEW022 BKN043 04/02 Q1016 NOSIG
  • 200020Z 31008KT 9999 BKN022 04/02 Q1017 NOSIG
  • 192350Z 30007KT 9999 BKN020 04/03 Q1016 RESHRA NOSIG
  • 192320Z 34009KT 290V010 7000 -SHRA BKN017 04/03 Q1016 NOSIG
  • 192250Z 31010KT 9999 -SHRA BKN020 05/02 Q1016 TEMPO 4500 SHRA
  • 192220Z 31011KT 9999 BKN022 05/02 Q1016 NOSIG

TAF TAF EBLG
Valid from the 20 at 00:00 until the 21 at 06:00 UTC


192315Z 2000/2106 31010KT 9999 SCT015 BKN030
PROB40
TEMPO 2008/2101 31015G25KT 4000 -SHRA SCT010 BKN014TCU



MET'MAP, your aeronautical weather chart ! - Copyright ORBIFLY December 2007 - Disclaimer

ORBIFLY MET'MAP TEAM :

Programming & Development : Alexandra Zaïnal
Original concept : Baudouin d'Aumeries
Technical & hardware support : Manuel Goepfert
Assistance : Marc-Olivier Méhu




SOURCES & CREDITS :

   NOAA